Time;durP1;ratioP1;P1;durP2;ratioP2;P2;SDS_P1;SDS_P2;PMS_P1;PMS_P2;Temp;Humidity;BMP_temperature;BMP_pressure;BME280_temperature;BME280_humidity;BME280_pressure;Samples;Min_cycle;Max_cycle;Signal;HPM_P1;HPM_P2
2022/12/23 00:02:20;;;;;;;57.45;43.10;;;7.10;99.90;;;;;;4980406;28;89473;-33
2022/12/23 00:04:46;;;;;;;106.35;51.00;;;7.10;99.90;;;;;;4979421;28;90126;-33
2022/12/23 00:07:12;;;;;;;57.17;42.25;;;7.10;99.90;;;;;;4980833;28;89882;-32
2022/12/23 00:09:37;;;;;;;87.93;47.67;;;7.10;99.90;;;;;;4979900;28;88982;-32
2022/12/23 00:15:05;;;;;;;63.13;41.33;;;7.10;99.90;;;;;;4979699;28;90380;-32
2022/12/23 00:17:42;;;;;;;80.07;41.80;;;7.10;99.90;;;;;;4979080;28;89480;-32
2022/12/23 00:20:10;;;;;;;47.22;34.38;;;7.10;99.90;;;;;;4968286;28;89913;-32
2022/12/23 00:25:38;;;;;;;88.15;44.10;;;7.10;99.90;;;;;;4968227;28;90394;-35
2022/12/23 00:28:06;;;;;;;47.10;37.50;;;7.10;99.90;;;;;;4980180;28;89439;-33
2022/12/23 00:30:31;;;;;;;62.45;42.80;;;7.10;99.90;;;;;;4979179;28;88636;-33
2022/12/23 00:32:57;;;;;;;64.97;42.35;;;7.10;99.90;;;;;;4979502;28;87723;-33
2022/12/23 00:35:22;;;;;;;206.57;60.92;;;7.10;99.90;;;;;;4980001;28;90329;-32
2022/12/23 00:37:48;;;;;;;63.30;42.67;;;7.10;99.90;;;;;;4979663;28;89911;-35
2022/12/23 00:43:00;;;;;;;110.65;47.92;;;7.10;99.90;;;;;;4979715;28;88754;-32
2022/12/23 00:45:25;;;;;;;101.85;46.72;;;7.10;99.90;;;;;;4979137;28;90376;-34
2022/12/23 00:50:37;;;;;;;65.50;42.22;;;7.10;99.90;;;;;;4979559;28;89865;-35
2022/12/23 00:53:04;;;;;;;237.02;64.68;;;7.10;99.90;;;;;;4979846;28;89603;-32
2022/12/23 00:55:30;;;;;;;58.40;42.25;;;7.10;99.90;;;;;;4979131;28;90564;-33
2022/12/23 00:57:56;;;;;;;110.18;49.15;;;7.10;99.90;;;;;;4978990;28;89147;-32
2022/12/23 01:05:35;;;;;;;66.78;43.35;;;7.10;99.90;;;;;;4980103;28;89676;-34
2022/12/23 01:06:02;;;;;;;48.67;38.35;;;7.10;99.90;;;;;;4979197;28;90408;-32
2022/12/23 01:08:28;;;;;;;97.32;49.45;;;7.10;99.90;;;;;;4979781;28;90297;-34
2022/12/23 01:10:54;;;;;;;57.58;41.08;;;7.10;99.90;;;;;;4979243;28;89526;-33
2022/12/23 01:13:20;;;;;;;73.90;44.30;;;7.10;99.90;;;;;;4979189;28;88285;-32
2022/12/23 01:15:46;;;;;;;85.85;49.47;;;7.10;99.90;;;;;;4979008;28;90390;-32
2022/12/23 01:18:12;;;;;;;180.82;57.05;;;7.10;99.90;;;;;;4979368;28;90166;-31
2022/12/23 01:20:38;;;;;;;262.95;67.72;;;7.10;99.90;;;;;;4978898;28;88344;-33
2022/12/23 01:23:04;;;;;;;65.07;44.45;;;7.10;99.90;;;;;;4979450;28;89122;-33
2022/12/23 01:25:30;;;;;;;76.88;45.88;;;7.10;99.90;;;;;;4978382;28;90253;-33
2022/12/23 01:27:55;;;;;;;69.47;44.65;;;7.10;99.90;;;;;;4978878;28;89406;-34
2022/12/23 01:30:21;;;;;;;69.90;45.30;;;7.10;99.90;;;;;;4980824;28;89381;-34
2022/12/23 01:32:47;;;;;;;72.75;47.65;;;7.00;99.90;;;;;;4983095;28;88074;-31
2022/12/23 01:35:13;;;;;;;64.45;44.05;;;7.10;99.90;;;;;;4982113;28;90308;-32
2022/12/23 01:37:38;;;;;;;59.28;41.60;;;7.00;99.90;;;;;;4982000;28;89998;-32
2022/12/23 01:40:05;;;;;;;66.25;44.20;;;7.00;99.90;;;;;;4982759;28;88955;-33
2022/12/23 01:42:43;;;;;;;330.48;78.10;;;7.00;99.90;;;;;;4981660;28;87694;-35
2022/12/23 01:45:13;;;;;;;140.18;52.15;;;7.00;99.90;;;;;;4980581;28;89986;-35
2022/12/23 01:47:41;;;;;;;140.00;54.28;;;7.10;99.90;;;;;;4982098;28;90266;-31
2022/12/23 01:50:13;;;;;;;119.78;51.13;;;7.00;99.90;;;;;;4981581;28;89807;-32
2022/12/23 01:53:05;;;;;;;125.25;52.88;;;7.10;99.90;;;;;;4981714;28;87611;-32
2022/12/23 01:55:35;;;;;;;114.90;49.90;;;7.10;99.90;;;;;;4977252;28;89909;-34
2022/12/23 01:58:10;;;;;;;84.13;44.80;;;7.10;99.90;;;;;;4982158;28;89314;-33
2022/12/23 02:12:10;;;;;;;63.33;37.70;;;7.00;99.90;;;;;;4981893;28;87987;-35
2022/12/23 02:18:05;;;;;;;56.27;40.57;;;7.00;99.90;;;;;;4981193;28;90545;-34
2022/12/23 02:21:04;;;;;;;204.70;57.78;;;7.00;99.90;;;;;;4981320;28;89621;-33
2022/12/23 02:23:36;;;;;;;61.40;42.08;;;7.00;99.90;;;;;;4980948;28;87758;-33
2022/12/23 02:26:20;;;;;;;85.10;43.03;;;7.00;99.90;;;;;;4981646;28;88262;-32
2022/12/23 02:28:46;;;;;;;60.22;40.50;;;7.00;99.90;;;;;;4981160;28;89849;-34
2022/12/23 02:31:20;;;;;;;52.83;39.97;;;7.00;99.90;;;;;;4981336;28;89440;-31
2022/12/23 02:34:07;;;;;;;74.43;42.90;;;7.00;99.90;;;;;;4981851;28;88041;-32
2022/12/23 02:36:51;;;;;;;164.23;55.65;;;7.00;99.90;;;;;;4968894;28;87664;-32
2022/12/23 02:39:57;;;;;;;92.07;44.20;;;6.90;99.90;;;;;;4981501;28;90825;-33
2022/12/23 02:42:30;;;;;;;65.05;41.70;;;7.00;99.90;;;;;;4981344;28;90837;-31
2022/12/23 02:45:02;;;;;;;58.95;40.88;;;6.90;99.90;;;;;;4982198;28;89792;-34
2022/12/23 02:47:46;;;;;;;97.97;44.60;;;7.00;99.90;;;;;;4981048;28;89651;-32
2022/12/23 02:50:22;;;;;;;79.75;44.30;;;7.00;99.90;;;;;;4968611;28;90310;-31
2022/12/23 02:52:49;;;;;;;67.70;39.75;;;7.00;99.90;;;;;;4980124;28;90071;-33
2022/12/23 02:55:25;;;;;;;45.50;34.35;;;7.00;99.90;;;;;;4981350;28;88334;-32
2022/12/23 02:57:53;;;;;;;59.60;37.28;;;7.00;99.90;;;;;;4981218;28;89855;-38
2022/12/23 03:00:20;;;;;;;55.50;38.53;;;7.00;99.90;;;;;;4981736;28;90306;-32
2022/12/23 03:02:46;;;;;;;182.38;53.92;;;7.00;99.90;;;;;;4980952;28;89694;-34
2022/12/23 03:05:39;;;;;;;57.95;33.53;;;7.00;99.90;;;;;;4981206;28;88266;-31
2022/12/23 03:08:11;;;;;;;151.80;51.22;;;7.00;99.90;;;;;;4980946;28;88322;-33
2022/12/23 03:11:12;;;;;;;72.47;38.95;;;7.00;99.90;;;;;;4981350;28;90349;-31
2022/12/23 03:14:02;;;;;;;54.80;36.72;;;7.00;99.90;;;;;;4980297;28;89893;-32
2022/12/23 03:17:10;;;;;;;58.30;37.42;;;7.00;99.90;;;;;;4980311;28;87602;-31
2022/12/23 03:20:03;;;;;;;49.03;38.15;;;7.00;99.90;;;;;;4971808;28;88633;-32
2022/12/23 03:22:42;;;;;;;57.72;36.42;;;7.00;99.90;;;;;;4968019;28;89809;-32
2022/12/23 03:25:18;;;;;;;159.90;50.17;;;7.00;99.90;;;;;;4981589;28;90279;-33
2022/12/23 03:28:06;;;;;;;121.25;44.08;;;7.00;99.90;;;;;;4979837;28;89976;-32
2022/12/23 03:30:34;;;;;;;117.10;45.45;;;7.00;99.90;;;;;;4979162;28;87699;-32
2022/12/23 03:33:12;;;;;;;53.00;35.83;;;7.00;99.90;;;;;;4980409;28;89675;-31
2022/12/23 03:35:49;;;;;;;114.70;45.22;;;7.00;99.90;;;;;;4980380;28;90211;-33
2022/12/23 03:38:17;;;;;;;46.13;33.17;;;7.00;99.90;;;;;;4980860;28;89568;-32
2022/12/23 03:40:51;;;;;;;84.22;36.00;;;7.00;99.90;;;;;;4979664;28;89321;-35
2022/12/23 03:43:24;;;;;;;40.10;27.55;;;7.00;99.90;;;;;;4980275;28;90839;-32
2022/12/23 03:45:57;;;;;;;75.13;34.63;;;7.00;99.90;;;;;;4980692;28;88653;-32
2022/12/23 03:48:32;;;;;;;95.32;37.08;;;7.00;99.90;;;;;;4980683;28;87626;-34
2022/12/23 03:51:03;;;;;;;192.13;44.45;;;7.00;99.90;;;;;;4981037;28;88659;-33
2022/12/23 03:53:39;;;;;;;43.67;30.00;;;7.00;99.90;;;;;;4978970;28;90304;-35
2022/12/23 03:56:23;;;;;;;80.60;31.85;;;7.00;99.90;;;;;;4980437;28;89703;-33
2022/12/23 03:59:01;;;;;;;120.65;36.65;;;7.00;99.90;;;;;;4995745;28;90463;-34
2022/12/23 04:01:54;;;;;;;44.83;27.20;;;7.00;99.90;;;;;;4980580;28;88017;-31
2022/12/23 04:04:25;;;;;;;78.20;31.55;;;7.00;99.90;;;;;;4958303;28;89409;-33
2022/12/23 04:06:59;;;;;;;42.28;25.05;;;7.00;99.90;;;;;;4980073;28;89781;-33
2022/12/23 04:09:27;;;;;;;50.75;28.83;;;7.00;99.90;;;;;;4980397;28;87934;-35
2022/12/23 04:11:53;;;;;;;54.37;30.57;;;7.00;99.90;;;;;;4980649;28;88327;-34
2022/12/23 04:14:20;;;;;;;145.75;38.08;;;7.00;99.90;;;;;;4979721;28;88906;-32
2022/12/23 04:16:48;;;;;;;60.45;30.98;;;7.00;99.90;;;;;;4979000;28;92088;-35
2022/12/23 04:19:14;;;;;;;56.05;31.20;;;7.00;99.90;;;;;;4980361;28;88475;-33
2022/12/23 04:21:39;;;;;;;46.75;28.25;;;7.00;99.90;;;;;;4980022;28;89076;-33
2022/12/23 04:24:05;;;;;;;58.55;29.75;;;7.00;99.90;;;;;;4979536;28;90246;-35
2022/12/23 04:26:31;;;;;;;108.63;35.38;;;7.00;99.90;;;;;;4980220;28;89706;-32
2022/12/23 04:28:56;;;;;;;99.72;31.38;;;7.00;99.90;;;;;;4979286;28;87656;-31
2022/12/23 04:31:22;;;;;;;76.90;31.55;;;7.00;99.90;;;;;;4980198;28;88151;-34
2022/12/23 04:33:48;;;;;;;41.40;25.70;;;7.00;99.90;;;;;;4978858;28;90488;-34
2022/12/23 04:36:13;;;;;;;99.60;33.92;;;7.00;99.90;;;;;;4979858;28;90376;-34
2022/12/23 04:38:39;;;;;;;90.07;33.63;;;7.00;99.90;;;;;;4979707;28;89772;-31
2022/12/23 04:41:04;;;;;;;80.95;32.58;;;6.90;99.90;;;;;;4979622;28;88846;-33
2022/12/23 04:43:30;;;;;;;79.32;33.17;;;6.90;99.90;;;;;;4979629;28;90727;-31
2022/12/23 04:45:55;;;;;;;115.78;36.13;;;6.90;99.90;;;;;;4978860;28;89640;-32
2022/12/23 04:48:21;;;;;;;83.35;30.42;;;7.00;99.90;;;;;;4980094;28;89626;-34
2022/12/23 04:50:47;;;;;;;47.65;28.23;;;6.90;99.90;;;;;;4979107;28;88345;-31
2022/12/23 04:53:12;;;;;;;84.63;31.77;;;7.00;99.90;;;;;;4979617;28;89316;-34
2022/12/23 04:55:38;;;;;;;42.38;29.05;;;7.00;99.90;;;;;;4979009;28;89439;-34
2022/12/23 04:58:03;;;;;;;48.50;29.70;;;6.90;99.90;;;;;;4979136;28;89924;-34
2022/12/23 05:00:29;;;;;;;74.28;32.03;;;7.00;99.90;;;;;;4979603;28;89462;-34
2022/12/23 05:02:55;;;;;;;54.92;28.30;;;6.90;99.90;;;;;;4979810;28;90437;-31
2022/12/23 05:05:20;;;;;;;51.80;26.95;;;6.90;99.90;;;;;;4983416;28;89731;-34
2022/12/23 05:07:49;;;;;;;54.08;30.02;;;6.90;99.90;;;;;;4982154;28;88522;-33
2022/12/23 05:10:14;;;;;;;39.97;25.33;;;6.90;99.90;;;;;;4982700;28;88397;-32
2022/12/23 05:12:40;;;;;;;51.95;27.70;;;6.90;99.90;;;;;;4998263;28;91729;-33
2022/12/23 05:15:06;;;;;;;164.98;37.72;;;6.90;99.90;;;;;;4982805;28;89923;-33
2022/12/23 05:17:32;;;;;;;43.28;25.27;;;6.90;99.90;;;;;;4982851;28;88651;-34
2022/12/23 05:19:58;;;;;;;64.85;27.63;;;6.90;99.90;;;;;;4983238;28;87934;-32
2022/12/23 05:22:23;;;;;;;132.88;37.03;;;6.90;99.90;;;;;;4981884;28;89959;-37
2022/12/23 05:24:49;;;;;;;181.93;39.72;;;6.90;99.90;;;;;;4982782;28;89978;-32
2022/12/23 05:27:14;;;;;;;131.50;36.58;;;6.90;99.90;;;;;;4983095;28;88957;-32
2022/12/23 05:29:40;;;;;;;207.55;46.33;;;6.90;99.90;;;;;;4982682;28;88743;-35
2022/12/23 05:32:06;;;;;;;132.77;37.83;;;6.90;99.90;;;;;;4982472;28;89386;-34
2022/12/23 05:34:31;;;;;;;86.25;31.42;;;6.90;99.90;;;;;;4981742;28;90043;-35
2022/12/23 05:36:57;;;;;;;94.18;30.77;;;6.90;99.90;;;;;;4982856;28;87560;-31
2022/12/23 05:39:22;;;;;;;54.20;28.52;;;6.90;99.90;;;;;;4982174;28;90312;-32
2022/12/23 05:41:48;;;;;;;83.97;30.23;;;6.90;99.90;;;;;;4982892;28;90928;-32
2022/12/23 05:44:13;;;;;;;239.55;46.05;;;6.90;99.90;;;;;;4981667;28;89434;-32
2022/12/23 05:46:39;;;;;;;106.32;32.88;;;6.90;99.90;;;;;;4982492;28;87819;-32
2022/12/23 05:49:05;;;;;;;59.83;28.58;;;6.90;99.90;;;;;;4982555;28;89766;-31
2022/12/23 05:51:30;;;;;;;165.90;35.97;;;6.80;99.90;;;;;;4982122;28;90325;-31
2022/12/23 05:53:56;;;;;;;68.43;27.48;;;6.90;99.90;;;;;;4982394;28;89954;-33
2022/12/23 05:56:21;;;;;;;136.07;33.75;;;6.90;99.90;;;;;;4981184;28;88620;-33
2022/12/23 05:58:47;;;;;;;108.97;35.92;;;6.80;99.90;;;;;;4981919;28;89925;-31
2022/12/23 06:01:13;;;;;;;138.35;34.45;;;6.90;99.90;;;;;;4981870;28;90066;-32
2022/12/23 06:03:38;;;;;;;53.03;26.42;;;6.90;99.90;;;;;;4982463;28;89540;-32
2022/12/23 06:06:04;;;;;;;221.82;43.80;;;6.80;99.90;;;;;;4981876;28;88312;-32
2022/12/23 06:08:30;;;;;;;214.30;43.72;;;6.80;99.90;;;;;;4981278;28;89338;-35
2022/12/23 06:10:55;;;;;;;179.73;42.10;;;6.80;99.90;;;;;;4982326;28;90148;-32
2022/12/23 06:13:21;;;;;;;60.03;28.58;;;6.80;99.90;;;;;;4981792;28;89524;-32
2022/12/23 06:15:47;;;;;;;90.45;31.25;;;6.80;99.90;;;;;;4981618;28;88556;-31
2022/12/23 06:18:12;;;;;;;112.47;32.95;;;6.80;99.90;;;;;;4981100;28;87852;-32
2022/12/23 06:20:38;;;;;;;65.30;30.85;;;6.80;99.90;;;;;;4981316;28;90218;-35
2022/12/23 06:23:04;;;;;;;110.60;35.78;;;6.80;99.90;;;;;;4981502;28;89438;-32
2022/12/23 06:25:29;;;;;;;82.93;31.50;;;6.80;99.90;;;;;;4981311;28;88674;-34
2022/12/23 06:27:55;;;;;;;92.93;31.25;;;6.80;99.90;;;;;;4982220;28;89139;-31
2022/12/23 06:30:20;;;;;;;91.30;33.80;;;6.80;99.90;;;;;;4980958;28;90150;-30
2022/12/23 06:32:46;;;;;;;184.32;41.28;;;6.80;99.90;;;;;;4981295;28;90508;-34
2022/12/23 06:35:12;;;;;;;124.57;36.17;;;6.80;99.90;;;;;;4981504;28;90286;-32
2022/12/23 06:37:37;;;;;;;172.57;42.28;;;6.70;99.90;;;;;;4981367;28;88303;-33
2022/12/23 06:40:04;;;;;;;137.55;38.55;;;6.80;99.90;;;;;;4981835;28;91430;-32
2022/12/23 06:42:29;;;;;;;188.77;44.17;;;6.70;99.90;;;;;;4980322;28;90641;-34
2022/12/23 06:44:55;;;;;;;138.43;36.55;;;6.80;99.90;;;;;;4981979;28;89862;-32
2022/12/23 06:47:21;;;;;;;202.18;43.53;;;6.80;99.90;;;;;;4981186;28;89234;-31
2022/12/23 06:49:46;;;;;;;266.45;48.70;;;6.80;99.90;;;;;;4981425;28;91648;-35
2022/12/23 06:52:12;;;;;;;151.82;36.88;;;6.80;99.90;;;;;;4981380;28;89747;-34
2022/12/23 06:54:37;;;;;;;246.65;44.78;;;6.80;99.90;;;;;;4979055;28;88972;-34
2022/12/23 06:57:03;;;;;;;232.32;43.10;;;6.80;99.90;;;;;;4981422;28;88959;-31
2022/12/23 06:59:29;;;;;;;207.23;40.75;;;6.80;99.90;;;;;;4980674;28;88815;-31
2022/12/23 07:01:55;;;;;;;323.23;52.10;;;6.70;99.90;;;;;;4979302;28;90579;-33
2022/12/23 07:04:20;;;;;;;125.60;32.40;;;6.80;99.90;;;;;;4979843;28;89473;-32
2022/12/23 07:06:46;;;;;;;219.15;38.30;;;6.80;99.90;;;;;;4979986;28;88872;-33
2022/12/23 07:09:11;;;;;;;280.17;50.05;;;6.80;99.90;;;;;;4980272;28;90230;-31
2022/12/23 07:11:37;;;;;;;160.57;35.65;;;6.70;99.90;;;;;;4978979;28;90792;-33
2022/12/23 07:14:03;;;;;;;193.23;39.63;;;6.80;99.90;;;;;;4980154;28;90651;-31
2022/12/23 07:16:28;;;;;;;115.10;30.85;;;6.70;99.90;;;;;;4979041;28;89490;-31
2022/12/23 07:18:54;;;;;;;94.68;30.48;;;6.80;99.90;;;;;;4979957;28;90313;-33
2022/12/23 07:21:19;;;;;;;276.90;46.08;;;6.80;99.90;;;;;;4979452;28;90079;-34
2022/12/23 07:23:46;;;;;;;246.25;42.70;;;6.70;99.90;;;;;;4979427;28;89597;-33
2022/12/23 07:26:12;;;;;;;268.92;40.25;;;6.70;99.90;;;;;;4980131;28;89687;-31
2022/12/23 07:28:38;;;;;;;151.15;31.33;;;6.70;99.90;;;;;;4979569;28;90201;-33
2022/12/23 07:31:05;;;;;;;305.45;47.03;;;6.70;99.90;;;;;;4980253;28;89529;-32
2022/12/23 07:33:30;;;;;;;204.82;35.25;;;6.70;99.90;;;;;;4979658;28;89466;-33
2022/12/23 07:35:59;;;;;;;267.63;40.97;;;6.80;99.90;;;;;;4978295;28;89014;-33
2022/12/23 07:38:25;;;;;;;201.40;34.58;;;6.80;99.90;;;;;;4979010;28;90539;-32
2022/12/23 07:40:50;;;;;;;290.85;40.65;;;6.70;99.90;;;;;;4979491;28;89832;-34
2022/12/23 07:43:16;;;;;;;257.35;42.22;;;6.70;99.90;;;;;;4979260;28;87744;-31
2022/12/23 07:45:41;;;;;;;177.95;33.88;;;6.70;99.90;;;;;;4979617;28;89973;-32
2022/12/23 07:48:07;;;;;;;193.45;38.95;;;6.70;99.90;;;;;;4978760;28;90321;-32
2022/12/23 07:50:33;;;;;;;208.00;37.05;;;6.70;99.90;;;;;;4978939;28;90170;-35
2022/12/23 07:52:59;;;;;;;214.95;38.97;;;6.70;99.90;;;;;;4978126;28;89597;-33
2022/12/23 07:55:24;;;;;;;176.82;32.40;;;6.70;99.90;;;;;;4983149;28;89178;-36
2022/12/23 07:57:51;;;;;;;95.43;26.25;;;6.70;99.90;;;;;;4996535;28;89277;-33
2022/12/23 08:00:18;;;;;;;83.82;25.98;;;6.70;99.90;;;;;;4991855;28;90534;-32
2022/12/23 08:02:43;;;;;;;167.55;31.60;;;6.70;99.90;;;;;;4995880;28;90392;-35
2022/12/23 08:05:10;;;;;;;150.88;30.40;;;6.70;99.90;;;;;;4993113;28;88879;-32
2022/12/23 08:07:35;;;;;;;181.73;32.95;;;6.80;99.90;;;;;;4995214;28;90236;-33
2022/12/23 08:10:01;;;;;;;154.82;30.20;;;6.80;99.90;;;;;;4994576;28;89715;-32
2022/12/23 08:12:27;;;;;;;142.85;30.30;;;6.70;99.90;;;;;;4993755;28;89336;-33
2022/12/23 08:14:53;;;;;;;196.98;34.60;;;6.70;99.90;;;;;;4995678;28;89773;-31
2022/12/23 08:17:22;;;;;;;160.68;34.40;;;6.70;99.90;;;;;;4992584;28;89813;-32
2022/12/23 08:19:48;;;;;;;188.52;33.53;;;6.70;99.90;;;;;;4996005;28;90967;-31
2022/12/23 08:22:14;;;;;;;83.82;25.98;;;6.70;99.90;;;;;;4991447;28;89361;-34
2022/12/23 08:24:39;;;;;;;73.72;24.17;;;6.70;99.90;;;;;;4978459;28;89352;-31
2022/12/23 08:27:05;;;;;;;104.18;27.08;;;6.70;99.90;;;;;;4978577;28;90236;-31
2022/12/23 08:29:31;;;;;;;113.13;27.17;;;6.70;99.90;;;;;;4978500;28;89802;-35
2022/12/23 08:31:56;;;;;;;128.00;28.20;;;6.70;99.90;;;;;;4978828;28;89379;-33
2022/12/23 08:34:22;;;;;;;166.20;26.92;;;6.60;99.90;;;;;;4978519;28;89747;-34
2022/12/23 08:36:48;;;;;;;132.18;28.20;;;6.70;99.90;;;;;;4979083;28;91404;-32
2022/12/23 08:39:14;;;;;;;171.80;29.85;;;6.70;99.90;;;;;;4976839;28;89809;-31
2022/12/23 08:41:43;;;;;;;141.48;28.35;;;6.60;99.90;;;;;;4983109;28;89102;-32
2022/12/23 08:44:09;;;;;;;169.13;33.33;;;6.60;99.90;;;;;;4987084;28;89510;-33
2022/12/23 08:46:36;;;;;;;202.55;37.95;;;6.70;99.90;;;;;;4978202;28;91775;-32
2022/12/23 08:49:02;;;;;;;161.38;28.05;;;6.70;99.90;;;;;;4977673;28;89872;-31
2022/12/23 08:51:28;;;;;;;67.28;19.67;;;6.60;99.90;;;;;;4982907;28;90430;-32
2022/12/23 08:53:58;;;;;;;119.90;20.33;;;6.70;99.90;;;;;;4977559;28;89472;-33
2022/12/23 08:56:27;;;;;;;107.15;21.30;;;6.70;99.90;;;;;;4977598;28;89794;-33
2022/12/23 08:58:54;;;;;;;68.72;19.60;;;6.70;99.90;;;;;;4987856;28;89474;-32
2022/12/23 09:01:23;;;;;;;176.90;30.73;;;6.70;99.90;;;;;;4992813;28;90033;-34
2022/12/23 09:03:50;;;;;;;139.50;26.75;;;6.70;99.90;;;;;;4996888;28;88803;-33
2022/12/23 09:06:18;;;;;;;113.97;26.08;;;6.70;99.90;;;;;;4994371;28;90216;-34
2022/12/23 09:08:45;;;;;;;45.30;20.05;;;6.70;99.90;;;;;;4982923;28;90697;-31
2022/12/23 09:11:13;;;;;;;65.65;20.33;;;6.70;99.90;;;;;;4984499;28;89244;-33
2022/12/23 09:13:39;;;;;;;87.80;22.75;;;6.80;99.90;;;;;;4976128;28;89875;-34
2022/12/23 09:16:06;;;;;;;78.80;21.67;;;6.80;99.90;;;;;;4976914;28;89480;-31
2022/12/23 09:18:31;;;;;;;95.78;23.08;;;6.80;99.90;;;;;;4974696;28;91230;-33
2022/12/23 09:21:03;;;;;;;43.95;20.23;;;6.80;99.90;;;;;;4974959;28;90757;-32
2022/12/23 09:23:29;;;;;;;73.97;23.48;;;6.80;99.90;;;;;;4975888;28;90047;-31
2022/12/23 09:25:55;;;;;;;55.00;19.42;;;6.80;99.90;;;;;;4976116;28;90247;-33
2022/12/23 09:28:21;;;;;;;93.10;23.42;;;6.80;99.90;;;;;;4975934;28;91463;-33
2022/12/23 09:30:46;;;;;;;163.45;29.70;;;6.80;99.90;;;;;;5016291;22;89755;-36
2022/12/23 09:33:12;;;;;;;36.30;20.35;;;6.80;99.90;;;;;;4997800;28;90060;-32
2022/12/23 09:35:38;;;;;;;63.80;22.73;;;6.90;99.90;;;;;;4996016;28;89731;-32
2022/12/23 09:38:03;;;;;;;50.05;22.17;;;6.90;99.90;;;;;;5001629;28;91187;-32
2022/12/23 09:40:33;;;;;;;158.23;29.92;;;6.90;99.90;;;;;;4996875;28;90525;-32
2022/12/23 09:43:13;;;;;;;40.50;19.50;;;6.90;99.90;;;;;;4996172;28;89176;-33
2022/12/23 09:45:58;;;;;;;41.38;18.90;;;6.90;99.90;;;;;;4994818;28;90544;-34
2022/12/23 09:48:29;;;;;;;49.92;21.90;;;7.00;99.90;;;;;;4996323;28;89061;-33
2022/12/23 09:50:55;;;;;;;41.45;21.05;;;7.00;99.90;;;;;;4998623;28;90273;-33
2022/12/23 09:53:33;;;;;;;32.38;19.58;;;7.00;99.90;;;;;;5000254;28;89011;-35
2022/12/23 09:56:12;;;;;;;42.75;19.75;;;7.00;99.90;;;;;;5000428;28;90338;-32
2022/12/23 09:58:44;;;;;;;30.15;19.00;;;7.10;99.90;;;;;;5000803;28;89463;-32
2022/12/23 10:01:17;;;;;;;34.15;19.58;;;7.10;99.90;;;;;;5001085;28;89780;-33
2022/12/23 10:04:01;;;;;;;28.55;18.98;;;7.10;99.90;;;;;;4999887;28;88832;-35
2022/12/23 10:06:29;;;;;;;29.30;17.83;;;7.10;99.90;;;;;;4990739;28;91178;-34
2022/12/23 10:09:00;;;;;;;29.80;18.60;;;7.20;99.90;;;;;;5000833;28;89982;-33
2022/12/23 10:11:30;;;;;;;28.23;17.08;;;7.20;99.90;;;;;;5001311;28;89669;-31
2022/12/23 10:13:59;;;;;;;28.40;18.17;;;7.20;99.90;;;;;;5001127;28;89267;-34
2022/12/23 10:16:34;;;;;;;28.75;16.67;;;7.20;99.90;;;;;;5000778;28;90681;-36
2022/12/23 10:19:07;;;;;;;22.00;16.98;;;7.20;99.90;;;;;;5000969;28;90133;-31
2022/12/23 10:21:51;;;;;;;48.97;22.38;;;7.20;99.90;;;;;;5000767;28;89331;-32
2022/12/23 10:24:26;;;;;;;31.30;19.25;;;7.20;99.90;;;;;;4987402;28;89460;-33
2022/12/23 10:27:03;;;;;;;38.70;22.00;;;7.30;99.90;;;;;;5000806;28;90391;-32
2022/12/23 10:29:32;;;;;;;30.02;20.33;;;7.30;99.90;;;;;;4987479;28;90075;-33
2022/12/23 10:32:10;;;;;;;38.92;23.20;;;7.30;99.90;;;;;;5000872;28;89132;-34
2022/12/23 10:34:56;;;;;;;36.53;22.27;;;7.30;99.90;;;;;;5000483;28;89416;-33
2022/12/23 10:37:50;;;;;;;38.97;21.65;;;7.30;99.90;;;;;;5000101;28;89894;-34
2022/12/23 10:40:28;;;;;;;35.78;22.92;;;7.30;99.90;;;;;;5000627;28;90210;-34
2022/12/23 10:42:56;;;;;;;38.53;21.47;;;7.40;99.90;;;;;;4998988;28;89780;-33
2022/12/23 10:45:28;;;;;;;;;;;7.30;99.90;;;;;;5001193;28;87730;-34
2022/12/23 10:47:57;;;;;;;35.33;21.60;;;7.30;99.90;;;;;;5003133;28;90626;-36
2022/12/23 10:50:25;;;;;;;34.42;19.92;;;7.30;99.90;;;;;;5000869;28;90013;-35
2022/12/23 10:52:53;;;;;;;29.52;18.65;;;7.40;99.90;;;;;;5000739;28;89438;-35
2022/12/23 10:55:23;;;;;;;32.20;20.52;;;7.40;99.90;;;;;;4999418;28;89434;-32
2022/12/23 10:57:50;;;;;;;32.38;19.35;;;7.50;99.90;;;;;;5000960;28;90131;-33
2022/12/23 11:00:20;;;;;;;25.00;17.88;;;7.50;99.90;;;;;;5000249;28;88965;-32
2022/12/23 11:03:06;;;;;;;27.10;18.27;;;7.50;99.90;;;;;;5000078;28;90232;-34
2022/12/23 11:05:33;;;;;;;26.35;18.85;;;7.50;99.90;;;;;;4999790;28;88026;-33
2022/12/23 11:07:59;;;;;;;27.60;18.10;;;7.50;99.90;;;;;;4999734;28;90030;-34
2022/12/23 11:10:31;;;;;;;25.65;18.80;;;7.50;99.90;;;;;;4999541;28;90180;-33
2022/12/23 11:12:57;;;;;;;26.10;17.55;;;7.50;99.90;;;;;;5000748;28;89498;-32
2022/12/23 11:15:30;;;;;;;28.60;19.08;;;7.50;99.90;;;;;;4999905;28;89351;-36
2022/12/23 11:17:58;;;;;;;25.75;17.90;;;7.50;99.90;;;;;;5000056;28;91137;-31
2022/12/23 11:20:24;;;;;;;;;;;7.50;99.90;;;;;;4999159;28;89933;-35
2022/12/23 11:22:57;;;;;;;27.20;18.42;;;7.60;99.90;;;;;;5001260;28;90136;-32
2022/12/23 11:25:30;;;;;;;28.67;18.02;;;7.50;99.90;;;;;;5000031;28;88872;-33
2022/12/23 11:28:10;;;;;;;27.90;18.17;;;7.60;99.90;;;;;;4999017;28;89827;-32
2022/12/23 11:30:54;;;;;;;24.40;18.30;;;7.60;99.90;;;;;;4999444;28;90190;-32
2022/12/23 11:33:22;;;;;;;29.02;20.58;;;7.60;99.90;;;;;;4999779;28;89875;-32
2022/12/23 11:36:03;;;;;;;34.17;23.30;;;7.60;99.90;;;;;;4999184;28;89004;-35
2022/12/23 11:38:29;;;;;;;33.88;21.50;;;7.60;99.90;;;;;;5000007;28;88713;-32
2022/12/23 11:40:55;;;;;;;38.63;22.90;;;7.60;99.90;;;;;;4999576;28;89186;-33
2022/12/23 11:43:23;;;;;;;29.83;22.35;;;7.60;99.90;;;;;;4998643;28;89644;-33
2022/12/23 11:46:13;;;;;;;34.80;21.00;;;7.70;99.90;;;;;;4998652;28;90359;-32
2022/12/23 11:48:38;;;;;;;30.10;20.77;;;7.70;99.90;;;;;;4999244;28;90723;-34
2022/12/23 11:51:04;;;;;;;34.08;19.90;;;7.70;99.90;;;;;;4999551;28;90135;-32
2022/12/23 11:53:31;;;;;;;33.55;20.88;;;7.70;99.90;;;;;;5000273;28;88418;-33
2022/12/23 11:56:07;;;;;;;30.60;21.70;;;7.70;99.90;;;;;;4999626;28;89536;-32
2022/12/23 11:58:47;;;;;;;27.02;20.38;;;7.70;99.90;;;;;;4998871;28;90276;-32
2022/12/23 12:01:22;;;;;;;34.13;25.17;;;7.80;99.90;;;;;;4998650;28;89121;-35
2022/12/23 12:04:02;;;;;;;40.30;25.00;;;7.90;99.90;;;;;;4999532;28;89582;-31
2022/12/23 12:06:29;;;;;;;43.10;27.33;;;7.90;99.90;;;;;;4998268;28;89585;-33
2022/12/23 12:08:57;;;;;;;34.33;25.30;;;7.80;99.90;;;;;;4999304;28;90300;-34
2022/12/23 12:11:35;;;;;;;34.55;25.33;;;7.90;99.90;;;;;;4998393;28;90846;-34
2022/12/23 12:14:07;;;;;;;28.75;24.60;;;7.90;99.90;;;;;;4997400;28;90547;-33
2022/12/23 12:16:54;;;;;;;32.88;22.77;;;8.00;99.90;;;;;;4999949;28;87644;-33
2022/12/23 12:19:39;;;;;;;33.72;22.48;;;7.90;99.90;;;;;;4999706;28;90082;-33
2022/12/23 12:22:13;;;;;;;31.88;22.27;;;8.10;99.90;;;;;;4998388;28;89287;-32
2022/12/23 12:24:51;;;;;;;30.95;22.25;;;8.00;99.90;;;;;;4998863;28;89293;-32
2022/12/23 12:27:18;;;;;;;36.10;21.33;;;8.00;99.90;;;;;;4999769;28;89606;-32
2022/12/23 12:29:51;;;;;;;35.10;22.80;;;8.00;99.90;;;;;;4998368;28;91724;-33
2022/12/23 12:32:35;;;;;;;36.33;22.58;;;8.00;99.90;;;;;;4998609;28;89809;-33
2022/12/23 12:35:09;;;;;;;32.25;21.67;;;8.00;99.90;;;;;;4997982;28;89717;-32
2022/12/23 12:37:56;;;;;;;27.42;19.55;;;8.00;99.90;;;;;;4998555;28;88068;-33
2022/12/23 12:41:06;;;;;;;28.20;18.40;;;8.00;99.90;;;;;;4999339;28;90319;-34
2022/12/23 12:43:36;;;;;;;31.08;18.88;;;8.00;99.90;;;;;;4927804;28;89759;-32
2022/12/23 12:46:04;;;;;;;27.40;17.92;;;8.00;99.90;;;;;;4936013;28;90493;-34
2022/12/23 12:48:58;;;;;;;29.33;18.60;;;7.90;99.90;;;;;;4969913;28;88477;-33
2022/12/23 12:51:45;;;;;;;28.42;17.05;;;7.90;99.90;;;;;;4998174;28;89944;-35
2022/12/23 12:54:30;;;;;;;26.35;18.52;;;7.90;99.90;;;;;;4998282;28;91019;-35
2022/12/23 12:56:57;;;;;;;23.65;17.30;;;7.90;99.90;;;;;;4998492;28;89653;-33
2022/12/23 12:59:35;;;;;;;29.25;15.15;;;7.90;99.90;;;;;;4999050;28;89174;-32
2022/12/23 13:02:50;;;;;;;26.75;18.73;;;7.90;99.90;;;;;;4998627;28;90347;-33
2022/12/23 13:05:38;;;;;;;29.23;18.85;;;7.90;99.90;;;;;;4999632;28;92109;-31
2022/12/23 13:08:29;;;;;;;26.35;18.00;;;8.00;99.90;;;;;;4999892;28;90598;-33
2022/12/23 13:11:19;;;;;;;24.27;19.48;;;8.00;99.90;;;;;;5003745;28;89545;-31
2022/12/23 13:14:06;;;;;;;23.15;18.20;;;8.00;99.90;;;;;;5002387;28;89459;-34
2022/12/23 13:16:49;;;;;;;26.88;18.98;;;8.00;99.90;;;;;;4993767;28;89645;-32
2022/12/23 13:19:48;;;;;;;29.90;20.77;;;8.10;99.90;;;;;;4994145;28;89009;-35
2022/12/23 13:22:24;;;;;;;34.88;22.67;;;8.10;99.90;;;;;;4997744;28;88902;-33